createdAt,value
2018-07-31T00:00:40.800Z,20.9
2018-07-31T00:01:40.704Z,20.9
2018-07-31T00:02:45.616Z,20.9
2018-07-31T00:03:52.391Z,20.9
2018-07-31T00:04:52.295Z,21
2018-07-31T00:05:55.974Z,21
2018-07-31T00:06:55.896Z,20.9
2018-07-31T00:07:59.945Z,20.9
2018-07-31T00:09:00.102Z,21
2018-07-31T00:10:00.739Z,21
2018-07-31T00:11:00.642Z,21
2018-07-31T00:12:01.569Z,20.9
2018-07-31T00:13:01.469Z,20.9
2018-07-31T00:14:01.619Z,20.8
2018-07-31T00:15:01.512Z,20.9
2018-07-31T00:16:01.678Z,20.8
2018-07-31T00:17:01.586Z,20.7
2018-07-31T00:18:10.746Z,20.8
2018-07-31T00:19:10.920Z,20.8
2018-07-31T00:20:19.602Z,20.8
2018-07-31T00:21:19.501Z,20.8
2018-07-31T00:22:19.666Z,20.8
2018-07-31T00:23:19.568Z,20.8
2018-07-31T00:24:20.168Z,20.8
2018-07-31T00:25:25.880Z,20.7
2018-07-31T00:26:25.785Z,20.7
2018-07-31T00:27:25.745Z,20.7
2018-07-31T00:28:26.762Z,20.6
2018-07-31T00:29:26.686Z,20.7
2018-07-31T00:30:30.678Z,20.7
2018-07-31T00:31:30.575Z,20.7
2018-07-31T00:32:40.050Z,20.6
2018-07-31T00:33:39.949Z,20.6
2018-07-31T00:34:42.685Z,20.6
2018-07-31T00:35:45.150Z,20.5
2018-07-31T00:36:45.288Z,20.5
2018-07-31T00:37:48.743Z,20.5
2018-07-31T00:38:50.066Z,20.6
2018-07-31T00:39:59.782Z,20.5
2018-07-31T00:41:05.661Z,20.5
2018-07-31T00:42:06.574Z,20.5
2018-07-31T00:43:06.476Z,20.6
2018-07-31T00:44:13.519Z,20.5
2018-07-31T00:45:13.467Z,20.5
2018-07-31T00:46:13.424Z,20.6
2018-07-31T00:47:13.567Z,20.6
2018-07-31T00:48:13.458Z,20.6
2018-07-31T00:49:14.817Z,20.6
2018-07-31T00:50:17.345Z,20.6
2018-07-31T00:51:17.242Z,20.7
2018-07-31T00:52:17.370Z,20.6
2018-07-31T00:53:17.270Z,20.6
2018-07-31T00:54:20.589Z,20.6
2018-07-31T00:55:20.517Z,20.5
2018-07-31T00:56:20.470Z,20.4
2018-07-31T00:57:21.031Z,20.4
2018-07-31T00:58:20.934Z,20.4
2018-07-31T00:59:27.917Z,20.4
2018-07-31T01:00:27.905Z,20.3
2018-07-31T01:01:27.796Z,20.3
2018-07-31T01:02:34.458Z,20.3
2018-07-31T01:03:34.349Z,20.3
2018-07-31T01:04:35.268Z,20.4
2018-07-31T01:05:35.197Z,20.4
2018-07-31T01:06:41.946Z,20.5
2018-07-31T01:07:41.854Z,20.5
2018-07-31T01:08:45.507Z,20.5
2018-07-31T01:09:48.564Z,20.6
2018-07-31T01:10:48.488Z,20.6
2018-07-31T01:11:51.184Z,20.5
2018-07-31T01:12:54.090Z,20.5
2018-07-31T01:13:57.629Z,20.4
2018-07-31T01:15:07.248Z,20.4
2018-07-31T01:16:07.150Z,20.5
2018-07-31T01:17:10.865Z,20.5
2018-07-31T01:18:10.774Z,20.4
2018-07-31T01:19:10.925Z,20.4
2018-07-31T01:20:14.116Z,20.3
2018-07-31T01:21:14.032Z,20.3
2018-07-31T01:22:14.617Z,20.3
2018-07-31T01:23:24.277Z,20.3
2018-07-31T01:24:24.178Z,20.3
2018-07-31T01:25:25.111Z,20.4
2018-07-31T01:26:25.032Z,20.4
2018-07-31T01:27:34.631Z,20.4
2018-07-31T01:28:34.534Z,20.4
2018-07-31T01:29:46.173Z,20.4
2018-07-31T01:30:46.934Z,20.3
2018-07-31T01:31:47.063Z,20.4
2018-07-31T01:32:46.983Z,20.4
2018-07-31T01:33:50.431Z,20.4
2018-07-31T01:34:50.346Z,20.3
2018-07-31T01:35:54.033Z,20.4
2018-07-31T01:36:53.986Z,20.3
2018-07-31T01:37:54.377Z,20.3
2018-07-31T01:38:54.280Z,20.3
2018-07-31T01:40:02.792Z,20.4
2018-07-31T01:41:03.807Z,20.4
2018-07-31T01:42:03.712Z,20.4
2018-07-31T01:43:13.714Z,20.3
2018-07-31T01:44:13.621Z,20.4
2018-07-31T01:45:16.539Z,20.3
2018-07-31T01:46:16.461Z,20.2
2018-07-31T01:47:16.596Z,20.3
2018-07-31T01:48:16.526Z,20.3
2018-07-31T01:49:16.448Z,20.2
2018-07-31T01:50:16.352Z,20.2
2018-07-31T01:51:16.708Z,20.1
2018-07-31T01:52:17.286Z,20
2018-07-31T01:53:17.843Z,20.1
2018-07-31T01:54:17.989Z,20
2018-07-31T01:55:17.919Z,20
2018-07-31T01:56:17.838Z,20.1
2018-07-31T01:57:20.606Z,20
2018-07-31T01:58:20.519Z,20
2018-07-31T01:59:21.420Z,20
2018-07-31T02:00:29.951Z,20
2018-07-31T02:01:30.580Z,20
2018-07-31T02:02:30.530Z,20
2018-07-31T02:03:33.576Z,20
2018-07-31T02:04:33.481Z,20
2018-07-31T02:05:40.227Z,20
2018-07-31T02:06:40.158Z,19.9
2018-07-31T02:07:40.321Z,19.8
2018-07-31T02:08:40.279Z,19.9
2018-07-31T02:09:40.227Z,19.8
2018-07-31T02:10:44.178Z,19.8
2018-07-31T02:11:44.755Z,19.8
2018-07-31T02:12:44.658Z,19.8
2018-07-31T02:13:47.379Z,19.8
2018-07-31T02:14:47.499Z,19.7
2018-07-31T02:15:47.474Z,19.7
2018-07-31T02:16:47.382Z,19.8
2018-07-31T02:17:51.092Z,19.8
2018-07-31T02:18:50.986Z,19.9
2018-07-31T02:19:51.917Z,19.8
2018-07-31T02:20:51.834Z,19.7
2018-07-31T02:21:52.234Z,19.7
2018-07-31T02:22:56.136Z,19.7
2018-07-31T02:23:56.036Z,19.7
2018-07-31T02:24:55.995Z,19.6
2018-07-31T02:25:55.907Z,19.7
2018-07-31T02:26:58.957Z,19.7
2018-07-31T02:27:59.106Z,19.7
2018-07-31T02:28:59.516Z,19.7
2018-07-31T02:30:03.066Z,19.8
2018-07-31T02:31:03.019Z,19.7
2018-07-31T02:32:12.613Z,19.7
2018-07-31T02:33:12.738Z,19.7
2018-07-31T02:34:12.658Z,19.7
2018-07-31T02:35:13.585Z,19.8
2018-07-31T02:36:13.521Z,19.8
2018-07-31T02:37:15.456Z,19.8
2018-07-31T02:38:15.379Z,19.7
2018-07-31T02:39:16.312Z,19.7
2018-07-31T02:40:16.239Z,19.7
2018-07-31T02:41:16.213Z,19.7
2018-07-31T02:42:23.333Z,19.7
2018-07-31T02:43:23.491Z,19.7
2018-07-31T02:44:23.406Z,19.7
2018-07-31T02:45:23.317Z,19.6
2018-07-31T02:46:27.093Z,19.7
2018-07-31T02:47:27.008Z,19.6
2018-07-31T02:48:29.704Z,19.6
2018-07-31T02:49:29.678Z,19.6
2018-07-31T02:50:35.146Z,19.6
2018-07-31T02:51:35.088Z,19.7
2018-07-31T02:52:35.691Z,19.6
2018-07-31T02:53:38.583Z,19.6
2018-07-31T02:54:38.486Z,19.6
2018-07-31T02:55:39.415Z,19.5
2018-07-31T02:56:39.358Z,19.5
2018-07-31T02:57:40.305Z,19.4
2018-07-31T02:58:40.242Z,19.4
2018-07-31T02:59:40.207Z,19.4
2018-07-31T03:00:40.113Z,19.3
2018-07-31T03:01:40.106Z,19.3
2018-07-31T03:02:41.729Z,19.4
2018-07-31T03:03:41.659Z,19.4
2018-07-31T03:04:41.832Z,19.4
2018-07-31T03:05:41.756Z,19.4
2018-07-31T03:06:48.631Z,19.4
2018-07-31T03:07:51.589Z,19.4
2018-07-31T03:08:54.477Z,19.3
2018-07-31T03:09:54.395Z,19.4
2018-07-31T03:10:59.207Z,19.3
2018-07-31T03:11:59.161Z,19.3
2018-07-31T03:12:59.551Z,19.2
2018-07-31T03:14:00.481Z,19.2
2018-07-31T03:15:00.413Z,19.2
2018-07-31T03:16:03.014Z,19.2
2018-07-31T03:17:02.960Z,19.1
2018-07-31T03:18:03.124Z,19.1
2018-07-31T03:19:06.070Z,19.2
2018-07-31T03:20:05.994Z,19.2
2018-07-31T03:21:05.936Z,19.2
2018-07-31T03:22:08.709Z,19.1
2018-07-31T03:23:09.111Z,19.1
2018-07-31T03:24:09.020Z,19.1
2018-07-31T03:25:17.826Z,19
2018-07-31T03:26:17.754Z,19.1
2018-07-31T03:27:18.660Z,19.2
2018-07-31T03:28:18.872Z,19.1
2018-07-31T03:29:19.180Z,19
2018-07-31T03:30:19.096Z,19
2018-07-31T03:31:19.013Z,19
2018-07-31T03:32:18.950Z,18.9
2018-07-31T03:33:19.336Z,19
2018-07-31T03:34:19.258Z,19.1
2018-07-31T03:35:19.216Z,19.1
2018-07-31T03:36:19.139Z,19.1
2018-07-31T03:37:19.038Z,19
2018-07-31T03:38:22.945Z,19
2018-07-31T03:39:22.842Z,19.1
2018-07-31T03:40:22.745Z,19.1
2018-07-31T03:41:22.667Z,19
2018-07-31T03:42:23.607Z,19
2018-07-31T03:43:23.949Z,19.1
2018-07-31T03:44:23.873Z,19
2018-07-31T03:45:23.778Z,19.1
2018-07-31T03:46:23.679Z,19.1
2018-07-31T03:47:23.838Z,19.1
2018-07-31T03:48:23.752Z,19.1
2018-07-31T03:49:23.654Z,19.1
2018-07-31T03:50:23.560Z,19
2018-07-31T03:51:23.489Z,19
2018-07-31T03:52:23.384Z,19
2018-07-31T03:53:23.803Z,19
2018-07-31T03:54:23.940Z,19
2018-07-31T03:55:23.869Z,19
2018-07-31T03:56:24.033Z,19
2018-07-31T03:57:27.210Z,19
2018-07-31T03:58:27.153Z,19.1
2018-07-31T03:59:27.061Z,19.1
2018-07-31T04:00:27.191Z,19
2018-07-31T04:01:27.127Z,19.1
2018-07-31T04:02:27.019Z,19
2018-07-31T04:03:30.118Z,19
2018-07-31T04:04:30.084Z,18.9
2018-07-31T04:05:30.242Z,18.9
2018-07-31T04:06:30.486Z,19
2018-07-31T04:07:30.384Z,19
2018-07-31T04:08:30.301Z,19
2018-07-31T04:09:30.231Z,19
2018-07-31T04:10:30.136Z,19
2018-07-31T04:11:30.044Z,19
2018-07-31T04:12:29.950Z,18.9
2018-07-31T04:13:31.351Z,19
2018-07-31T04:14:31.258Z,19
2018-07-31T04:15:31.399Z,19
2018-07-31T04:16:31.303Z,19
2018-07-31T04:17:31.209Z,19
2018-07-31T04:18:34.407Z,19.1
2018-07-31T04:19:34.315Z,19.1
2018-07-31T04:20:34.233Z,19.1
2018-07-31T04:21:34.149Z,19
2018-07-31T04:22:34.049Z,19
2018-07-31T04:23:34.410Z,19
2018-07-31T04:24:37.092Z,19
2018-07-31T04:25:36.999Z,19
2018-07-31T04:26:36.903Z,19.1
2018-07-31T04:27:39.469Z,19.1
2018-07-31T04:28:39.380Z,19.2
2018-07-31T04:29:39.308Z,19.2
2018-07-31T04:30:39.207Z,19.2
2018-07-31T04:31:39.335Z,19.3
2018-07-31T04:32:39.258Z,19.3
2018-07-31T04:33:42.605Z,19.4
2018-07-31T04:34:42.538Z,19.4
2018-07-31T04:35:42.480Z,19.3
2018-07-31T04:36:44.997Z,19.4
2018-07-31T04:37:44.948Z,19.4
2018-07-31T04:38:44.853Z,19.4
2018-07-31T04:39:44.794Z,19.4
2018-07-31T04:40:54.082Z,19.3
2018-07-31T04:41:53.981Z,19.4
2018-07-31T04:42:53.877Z,19.4
2018-07-31T04:43:54.200Z,19.4
2018-07-31T04:44:54.159Z,19.4
2018-07-31T04:45:54.063Z,19.3
2018-07-31T04:46:53.946Z,19.3
2018-07-31T04:47:53.874Z,19.3
2018-07-31T04:48:53.994Z,19.3
2018-07-31T04:49:53.881Z,19.3
2018-07-31T04:50:53.817Z,19.3
2018-07-31T04:51:53.768Z,19.2
2018-07-31T04:52:53.680Z,19.2
2018-07-31T04:53:56.573Z,19.3
2018-07-31T04:54:56.507Z,19.3
2018-07-31T04:55:56.412Z,19.3
2018-07-31T04:56:56.328Z,19.3
2018-07-31T04:57:56.237Z,19.4
2018-07-31T04:58:56.145Z,19.5
2018-07-31T04:59:56.040Z,19.5
2018-07-31T05:00:56.189Z,19.6
2018-07-31T05:01:56.089Z,19.6
2018-07-31T05:02:56.017Z,19.6
2018-07-31T05:03:57.400Z,19.6
2018-07-31T05:04:57.301Z,19.7
2018-07-31T05:05:57.251Z,19.7
2018-07-31T05:06:57.261Z,19.7
2018-07-31T05:07:57.158Z,19.8
2018-07-31T05:08:57.067Z,19.8
2018-07-31T05:09:56.980Z,19.9
2018-07-31T05:10:57.014Z,19.9
2018-07-31T05:11:57.063Z,20
2018-07-31T05:12:56.960Z,20.1
2018-07-31T05:13:57.323Z,20.1
2018-07-31T05:14:57.222Z,20.2
2018-07-31T05:15:57.118Z,20.3
2018-07-31T05:16:57.068Z,20.4
2018-07-31T05:17:56.977Z,20.5
2018-07-31T05:18:56.879Z,20.5
2018-07-31T05:19:57.049Z,20.6
2018-07-31T05:20:56.959Z,20.8
2018-07-31T05:21:56.861Z,20.9
2018-07-31T05:22:56.776Z,20.9
2018-07-31T05:23:57.370Z,21.1
2018-07-31T05:24:57.265Z,21.3
2018-07-31T05:25:57.183Z,21.5
2018-07-31T05:26:57.084Z,21.7
2018-07-31T05:27:56.997Z,21.9
2018-07-31T05:28:56.895Z,22
2018-07-31T05:29:56.807Z,22.2
2018-07-31T05:30:56.703Z,22.3
2018-07-31T05:31:56.608Z,22.3
2018-07-31T05:33:00.540Z,22.4
2018-07-31T05:34:00.912Z,22.4
2018-07-31T05:35:01.829Z,22.6
2018-07-31T05:36:01.760Z,22.7
2018-07-31T05:37:01.666Z,22.8
2018-07-31T05:38:01.603Z,22.9
2018-07-31T05:39:01.567Z,23.1
2018-07-31T05:40:01.469Z,23
2018-07-31T05:41:01.386Z,23.3
2018-07-31T05:42:01.318Z,23.4
2018-07-31T05:43:01.221Z,23.7
2018-07-31T05:44:01.583Z,23.9
2018-07-31T05:45:01.513Z,24
2018-07-31T05:46:01.417Z,24.1
2018-07-31T05:47:01.334Z,24.3
2018-07-31T05:48:02.242Z,24.5
2018-07-31T05:49:02.154Z,24.5
2018-07-31T05:50:02.077Z,24.6
2018-07-31T05:51:03.007Z,24.7
2018-07-31T05:52:02.917Z,24.7
2018-07-31T05:53:02.822Z,24.8
2018-07-31T05:54:03.222Z,25
2018-07-31T05:55:03.134Z,25
2018-07-31T05:56:03.065Z,25.1
2018-07-31T05:57:03.017Z,25.3
2018-07-31T05:58:02.934Z,25.3
2018-07-31T05:59:02.893Z,25.3
2018-07-31T06:00:03.018Z,25.4
2018-07-31T06:01:02.944Z,25.5
2018-07-31T06:02:02.856Z,25.7
2018-07-31T06:03:02.773Z,25.8
2018-07-31T06:04:04.545Z,25.8
2018-07-31T06:05:04.448Z,25.9
2018-07-31T06:06:04.353Z,25.9
2018-07-31T06:07:04.313Z,26
2018-07-31T06:08:04.209Z,26
2018-07-31T06:09:04.158Z,26
2018-07-31T06:10:04.281Z,26
2018-07-31T06:11:04.187Z,26.1
2018-07-31T06:12:04.123Z,26
2018-07-31T06:13:04.020Z,26.2
2018-07-31T06:14:04.374Z,26.1
2018-07-31T06:15:04.304Z,25.9
2018-07-31T06:16:04.446Z,25.1
2018-07-31T06:17:04.341Z,25.2
2018-07-31T06:18:04.231Z,25.4
2018-07-31T06:19:04.362Z,25.6
2018-07-31T06:20:04.273Z,25.5
2018-07-31T06:21:04.196Z,24.8
2018-07-31T06:22:04.109Z,24.5
2018-07-31T06:23:04.007Z,24.3
2018-07-31T06:24:04.343Z,24.4
2018-07-31T06:25:04.278Z,24.1
2018-07-31T06:26:04.189Z,24.3
2018-07-31T06:27:04.223Z,23.4
2018-07-31T06:28:04.757Z,23.3
2018-07-31T06:29:04.664Z,23.3
2018-07-31T06:30:04.608Z,23.9
2018-07-31T06:31:04.747Z,23.9
2018-07-31T06:32:04.649Z,24.3
2018-07-31T06:33:04.554Z,23.8
2018-07-31T06:34:04.962Z,24.1
2018-07-31T06:35:04.864Z,23.5
2018-07-31T06:36:04.834Z,23.7
2018-07-31T06:37:04.969Z,23.8
2018-07-31T06:38:04.883Z,24.1
2018-07-31T06:39:04.801Z,23.8
2018-07-31T06:40:04.941Z,24.3
2018-07-31T06:41:04.871Z,24.6
2018-07-31T06:42:04.786Z,25.1
2018-07-31T06:43:04.696Z,25.2
2018-07-31T06:44:06.493Z,24.6
2018-07-31T06:45:06.406Z,24.1
2018-07-31T06:46:06.351Z,24.5
2018-07-31T06:47:06.255Z,24.9
2018-07-31T06:48:06.168Z,24.6
2018-07-31T06:49:06.093Z,24.8
2018-07-31T06:50:06.018Z,25.3
2018-07-31T06:51:05.932Z,25.7
2018-07-31T06:52:05.877Z,25.7
2018-07-31T06:53:05.787Z,25.7
2018-07-31T06:54:06.593Z,25.9
2018-07-31T06:55:06.502Z,25.9
2018-07-31T06:56:06.408Z,25.7
2018-07-31T06:57:06.346Z,25.7
2018-07-31T06:58:06.251Z,26
2018-07-31T06:59:06.165Z,26.1
2018-07-31T07:00:06.087Z,26.2
2018-07-31T07:01:06.017Z,26.5
2018-07-31T07:02:06.054Z,26.2
2018-07-31T07:03:06.197Z,26.2
2018-07-31T07:04:07.002Z,26.3
2018-07-31T07:05:06.922Z,25.9
2018-07-31T07:06:06.840Z,25.8
2018-07-31T07:07:06.789Z,25.7
2018-07-31T07:08:06.694Z,26.2
2018-07-31T07:09:06.601Z,26.7
2018-07-31T07:10:06.608Z,26.6
2018-07-31T07:11:06.519Z,26.3
2018-07-31T07:12:06.441Z,26.4
2018-07-31T07:13:06.355Z,25.7
2018-07-31T07:14:06.696Z,25.8
2018-07-31T07:15:06.600Z,25.5
2018-07-31T07:16:06.518Z,25.7
2018-07-31T07:17:06.434Z,25.8
2018-07-31T07:18:06.364Z,26.3
2018-07-31T07:19:06.296Z,26.7
2018-07-31T07:20:06.193Z,26.5
2018-07-31T07:21:06.102Z,25.7
2018-07-31T07:22:06.271Z,26
2018-07-31T07:23:06.184Z,25.6
2018-07-31T07:24:06.526Z,26
2018-07-31T07:25:06.693Z,26.2
2018-07-31T07:26:06.592Z,26.5
2018-07-31T07:27:06.507Z,26.5
2018-07-31T07:28:07.107Z,26.6
2018-07-31T07:29:07.024Z,26.9
2018-07-31T07:30:06.930Z,26.5
2018-07-31T07:31:07.058Z,26.8
2018-07-31T07:32:06.983Z,27
2018-07-31T07:33:06.915Z,27.1
2018-07-31T07:34:07.455Z,27.3
2018-07-31T07:35:07.367Z,27.4
2018-07-31T07:36:07.270Z,28
2018-07-31T07:37:07.236Z,28.2
2018-07-31T07:38:07.367Z,28.3
2018-07-31T07:39:07.290Z,28.4
2018-07-31T07:40:07.414Z,28.6
2018-07-31T07:41:07.826Z,28.6
2018-07-31T07:42:07.769Z,28.8
2018-07-31T07:43:07.669Z,28.3
2018-07-31T07:44:08.028Z,28.2
2018-07-31T07:45:07.986Z,27.7
2018-07-31T07:46:07.886Z,27.1
2018-07-31T07:47:07.807Z,27.2
2018-07-31T07:48:07.701Z,27.5
2018-07-31T07:49:07.641Z,28
2018-07-31T07:50:07.771Z,28.2
2018-07-31T07:51:07.667Z,28.3
2018-07-31T07:52:07.564Z,28.2
2018-07-31T07:53:07.475Z,28.4
2018-07-31T07:54:08.232Z,27.2
2018-07-31T07:55:12.251Z,27.2
2018-07-31T07:56:12.161Z,27.7
2018-07-31T07:57:12.070Z,28.1
2018-07-31T07:58:11.983Z,28.7
2018-07-31T07:59:12.147Z,28.9
2018-07-31T08:00:12.061Z,29.2
2018-07-31T08:01:11.973Z,29.5
2018-07-31T08:02:14.813Z,29.4
2018-07-31T08:03:14.735Z,29.4
2018-07-31T08:04:15.727Z,29.1
2018-07-31T08:05:15.863Z,29.4
2018-07-31T08:06:15.783Z,29.8
2018-07-31T08:07:15.696Z,30.1
2018-07-31T08:08:15.629Z,30.3
2018-07-31T08:09:15.540Z,30.4
2018-07-31T08:10:15.474Z,30.3
2018-07-31T08:11:15.406Z,30
2018-07-31T08:12:15.301Z,30
2018-07-31T08:13:15.220Z,30
2018-07-31T08:14:15.589Z,30
2018-07-31T08:15:15.487Z,29.5
2018-07-31T08:16:15.408Z,28.8
2018-07-31T08:17:15.543Z,29
2018-07-31T08:18:15.444Z,29.3
2018-07-31T08:19:15.344Z,29.6
2018-07-31T08:20:15.384Z,29.7
2018-07-31T08:21:15.532Z,29.8
2018-07-31T08:22:15.433Z,30.1
2018-07-31T08:23:15.357Z,30.2
2018-07-31T08:24:15.714Z,30
2018-07-31T08:25:15.628Z,30.2
2018-07-31T08:26:15.787Z,30.1
2018-07-31T08:27:15.696Z,30.3
2018-07-31T08:28:15.621Z,30.4
2018-07-31T08:29:15.738Z,30.5
2018-07-31T08:30:15.648Z,30.2
2018-07-31T08:31:15.580Z,30.2
2018-07-31T08:32:15.725Z,30.5
2018-07-31T08:33:15.629Z,30.8
2018-07-31T08:34:16.160Z,30.9
2018-07-31T08:35:16.087Z,30.7
2018-07-31T08:36:16.014Z,30.2
2018-07-31T08:37:15.930Z,29.6
2018-07-31T08:38:16.824Z,29.8
2018-07-31T08:39:16.737Z,30.5
2018-07-31T08:40:16.643Z,30.6
2018-07-31T08:41:16.924Z,30.6
2018-07-31T08:42:16.886Z,30.5
2018-07-31T08:43:16.829Z,30.5
2018-07-31T08:44:17.687Z,30.7
2018-07-31T08:45:17.593Z,30.8
2018-07-31T08:46:17.509Z,31
2018-07-31T08:47:18.346Z,31.1
2018-07-31T08:48:18.269Z,30.8
2018-07-31T08:49:18.174Z,30.7
2018-07-31T08:50:18.085Z,30.7
2018-07-31T08:51:18.179Z,30.5
2018-07-31T08:52:18.787Z,30.6
2018-07-31T08:53:18.707Z,30.7
2018-07-31T08:54:25.953Z,30.7
2018-07-31T08:55:32.298Z,30.8
2018-07-31T08:56:32.229Z,30.7
2018-07-31T08:57:34.857Z,30.8
2018-07-31T08:58:34.780Z,30.8
2018-07-31T08:59:38.613Z,30.5
2018-07-31T09:00:39.535Z,30.6
2018-07-31T09:01:42.229Z,30.4
2018-07-31T09:02:42.487Z,30.5
2018-07-31T09:03:46.249Z,30.5
2018-07-31T09:04:46.622Z,30.6
2018-07-31T09:05:46.532Z,30.7
2018-07-31T09:06:49.918Z,30.6
2018-07-31T09:07:49.856Z,30.6
2018-07-31T09:08:50.057Z,30.6
2018-07-31T09:09:50.636Z,30.5
2018-07-31T09:10:54.564Z,30.2
2018-07-31T09:11:54.547Z,30.4
2018-07-31T09:13:01.343Z,30.5
2018-07-31T09:14:01.252Z,30.6
2018-07-31T09:15:08.667Z,30.6
2018-07-31T09:16:08.590Z,30.3
2018-07-31T09:17:09.509Z,30.2
2018-07-31T09:18:09.447Z,30.3
2018-07-31T09:19:13.118Z,30.5
2018-07-31T09:20:15.844Z,30.3
2018-07-31T09:21:15.784Z,30.4
2018-07-31T09:22:18.733Z,30.4
2018-07-31T09:23:18.975Z,30.6
2018-07-31T09:24:22.809Z,30.7
2018-07-31T09:25:25.643Z,30.7
2018-07-31T09:26:25.552Z,30.7
2018-07-31T09:27:25.548Z,30.9
2018-07-31T09:28:25.467Z,31
2018-07-31T09:29:29.373Z,31.2
2018-07-31T09:30:29.580Z,31.1
2018-07-31T09:31:29.830Z,31.1
2018-07-31T09:32:29.747Z,31.2
2018-07-31T09:33:29.911Z,31.3
2018-07-31T09:34:51.138Z,31.5
2018-07-31T09:35:55.710Z,31.5
2018-07-31T09:36:55.613Z,31.5
2018-07-31T09:37:58.775Z,31.7
2018-07-31T09:38:58.888Z,31.8
2018-07-31T09:39:59.034Z,31.7
2018-07-31T09:41:02.771Z,31.5
2018-07-31T09:42:05.698Z,31.5
2018-07-31T09:43:08.534Z,31.6
2018-07-31T09:44:08.453Z,31.1
2018-07-31T09:45:08.386Z,30.9
2018-07-31T09:46:11.463Z,30.9
2018-07-31T09:47:11.355Z,30.9
2018-07-31T09:48:14.008Z,31
2018-07-31T09:49:13.941Z,31.1
2018-07-31T09:50:22.629Z,31.2
2018-07-31T09:51:22.546Z,31.3
2018-07-31T09:52:22.505Z,31.4
2018-07-31T09:53:22.414Z,31.4
2018-07-31T09:54:23.331Z,31.5
2018-07-31T09:55:23.249Z,31.6
2018-07-31T09:56:27.495Z,31.3
2018-07-31T09:57:33.194Z,31.2
2018-07-31T09:58:33.132Z,31.1
2018-07-31T09:59:36.093Z,31.2
2018-07-31T10:00:36.015Z,31.1
2018-07-31T10:01:35.991Z,31.1
2018-07-31T10:02:35.896Z,31.2
2018-07-31T10:03:42.547Z,31.2
2018-07-31T10:04:42.455Z,31.3
2018-07-31T10:05:42.826Z,31.5
2018-07-31T10:06:44.198Z,31.3
2018-07-31T10:07:44.133Z,31.1
2018-07-31T10:08:44.111Z,31
2018-07-31T10:09:44.019Z,30.9
2018-07-31T10:10:45.937Z,31
2018-07-31T10:11:45.993Z,30.9
2018-07-31T10:12:53.264Z,30.7
2018-07-31T10:13:53.190Z,30.6
2018-07-31T10:14:53.360Z,30.6
2018-07-31T10:15:53.281Z,30.7
2018-07-31T10:16:53.883Z,30.8
2018-07-31T10:17:59.055Z,30.8
2018-07-31T10:18:59.460Z,30.9
2018-07-31T10:19:59.587Z,30.8
2018-07-31T10:20:59.639Z,30.9
2018-07-31T10:21:59.565Z,31
2018-07-31T10:23:03.289Z,31.1
2018-07-31T10:24:03.380Z,30.9
2018-07-31T10:25:03.677Z,31
2018-07-31T10:26:03.582Z,31.1
2018-07-31T10:27:05.149Z,31.2
2018-07-31T10:28:05.329Z,31.1
2018-07-31T10:29:05.249Z,31.1
2018-07-31T10:30:05.158Z,31.1
2018-07-31T10:31:05.657Z,31.1
2018-07-31T10:32:06.626Z,31.1
2018-07-31T10:33:06.591Z,30.9
2018-07-31T10:34:09.353Z,31
2018-07-31T10:35:09.298Z,31.3
2018-07-31T10:36:09.208Z,31.4
2018-07-31T10:37:11.569Z,31.5
2018-07-31T10:38:14.018Z,31.4
2018-07-31T10:39:14.173Z,31.4
2018-07-31T10:40:14.094Z,31.2
2018-07-31T10:41:13.991Z,31.4
2018-07-31T10:42:14.929Z,31.3
2018-07-31T10:43:14.825Z,31
2018-07-31T10:44:17.726Z,30.9
2018-07-31T10:45:17.633Z,30.7
2018-07-31T10:46:27.212Z,30.9
2018-07-31T10:47:28.339Z,31.1
2018-07-31T10:48:31.260Z,31.1
2018-07-31T10:49:31.189Z,31.2
2018-07-31T10:50:36.958Z,31.3
2018-07-31T10:51:37.104Z,31.4
2018-07-31T10:52:43.067Z,31.3
2018-07-31T10:53:42.972Z,31
2018-07-31T10:54:42.898Z,30.9
2018-07-31T10:55:49.833Z,31
2018-07-31T10:56:49.744Z,31.1
2018-07-31T10:57:53.627Z,31
2018-07-31T10:58:56.455Z,30.8
2018-07-31T11:00:00.386Z,30.8
2018-07-31T11:01:00.977Z,30.9
2018-07-31T11:02:00.935Z,30.9
2018-07-31T11:03:00.971Z,30.9
2018-07-31T11:04:01.710Z,30.7
2018-07-31T11:05:02.316Z,30.4
2018-07-31T11:06:06.013Z,30.5
2018-07-31T11:07:05.985Z,30.6
2018-07-31T11:08:11.051Z,30.6
2018-07-31T11:09:10.962Z,30.5
2018-07-31T11:10:11.124Z,30.6
2018-07-31T11:11:11.041Z,30.7
2018-07-31T11:12:16.543Z,30.7
2018-07-31T11:13:16.603Z,30.7
2018-07-31T11:14:17.367Z,30.8
2018-07-31T11:15:17.325Z,30.9
2018-07-31T11:16:21.110Z,30.9
2018-07-31T11:17:21.033Z,30.9
2018-07-31T11:18:22.406Z,30.8
2018-07-31T11:19:22.564Z,30.8
2018-07-31T11:20:22.490Z,30.8
2018-07-31T11:21:27.088Z,30.9
2018-07-31T11:22:27.001Z,30.9
2018-07-31T11:23:27.934Z,30.8
2018-07-31T11:24:27.836Z,30.8
2018-07-31T11:25:29.800Z,30.7
2018-07-31T11:26:29.707Z,30.7
2018-07-31T11:27:36.601Z,30.7
2018-07-31T11:28:37.289Z,30.8
2018-07-31T11:29:37.193Z,30.9
2018-07-31T11:30:37.913Z,30.9
2018-07-31T11:31:37.826Z,30.9
2018-07-31T11:32:38.750Z,30.6
2018-07-31T11:33:38.664Z,30.6
2018-07-31T11:34:38.585Z,30.5
2018-07-31T11:35:38.756Z,30.3
2018-07-31T11:36:41.651Z,30.4
2018-07-31T11:37:41.564Z,30.5
2018-07-31T11:38:45.807Z,30.6
2018-07-31T11:39:48.440Z,30.5
2018-07-31T11:40:51.387Z,30.4
2018-07-31T11:41:52.301Z,30.2
2018-07-31T11:42:52.222Z,30.2
2018-07-31T11:43:58.986Z,30.3
2018-07-31T11:44:59.211Z,30.3
2018-07-31T11:46:01.983Z,30.2
2018-07-31T11:47:01.900Z,30.2
2018-07-31T11:48:03.812Z,30.2
2018-07-31T11:49:06.960Z,30
2018-07-31T11:50:07.056Z,30
2018-07-31T11:51:08.769Z,30.1
2018-07-31T11:52:08.673Z,30.2
2018-07-31T11:53:08.577Z,30
2018-07-31T11:54:11.295Z,29.9
2018-07-31T11:55:11.442Z,29.9
2018-07-31T11:56:11.377Z,29.8
2018-07-31T11:57:11.561Z,30
2018-07-31T11:58:11.468Z,30.1
2018-07-31T11:59:14.942Z,30.1
2018-07-31T12:00:17.618Z,30.1
2018-07-31T12:01:17.545Z,30.1
2018-07-31T12:02:18.478Z,30
2018-07-31T12:03:18.409Z,30
2018-07-31T12:04:18.894Z,30.1
2018-07-31T12:05:19.224Z,30.1
2018-07-31T12:06:19.489Z,30.2
2018-07-31T12:07:19.414Z,30.2
2018-07-31T12:08:19.341Z,30.1
2018-07-31T12:09:19.735Z,29.9
2018-07-31T12:10:19.653Z,30
2018-07-31T12:11:19.596Z,30.1
2018-07-31T12:12:19.734Z,30.1
2018-07-31T12:13:19.671Z,30.1
2018-07-31T12:14:25.407Z,30.1
2018-07-31T12:15:25.343Z,30.2
2018-07-31T12:16:25.286Z,30.2
2018-07-31T12:17:25.215Z,30.2
2018-07-31T12:18:25.121Z,30
2018-07-31T12:19:25.922Z,30
2018-07-31T12:20:25.829Z,29.9
2018-07-31T12:21:25.784Z,30
2018-07-31T12:22:25.726Z,30.1
2018-07-31T12:23:26.309Z,30
2018-07-31T12:24:26.222Z,30.1
2018-07-31T12:25:26.124Z,30
2018-07-31T12:26:26.287Z,29.9
2018-07-31T12:27:26.238Z,29.8
2018-07-31T12:28:27.171Z,29.8
2018-07-31T12:29:28.167Z,29.9
2018-07-31T12:30:28.090Z,30
2018-07-31T12:31:34.627Z,30.1
2018-07-31T12:32:34.558Z,30.2
2018-07-31T12:33:35.493Z,30.2
2018-07-31T12:34:35.410Z,30.3
2018-07-31T12:35:36.317Z,30.4
2018-07-31T12:36:39.231Z,30.3
2018-07-31T12:37:42.176Z,30.4
2018-07-31T12:38:42.117Z,30.4
2018-07-31T12:39:43.524Z,30.4
2018-07-31T12:40:43.436Z,30.5
2018-07-31T12:41:45.896Z,30.5
2018-07-31T12:42:46.833Z,30.5
2018-07-31T12:43:46.888Z,30.6
2018-07-31T12:44:50.028Z,30.4
2018-07-31T12:45:50.149Z,30.5
2018-07-31T12:46:51.049Z,30.5
2018-07-31T12:47:51.975Z,30.6
2018-07-31T12:48:51.881Z,30.5
2018-07-31T12:49:52.518Z,30.5
2018-07-31T12:50:52.439Z,30.5
2018-07-31T12:51:52.360Z,30.5
2018-07-31T12:52:55.071Z,30.6
2018-07-31T12:53:54.980Z,30.5
2018-07-31T12:54:59.399Z,30.5
2018-07-31T12:55:59.292Z,30.4
2018-07-31T12:56:59.490Z,30.4
2018-07-31T12:57:59.424Z,30.5
2018-07-31T12:58:59.619Z,30.4
2018-07-31T13:00:01.108Z,30.3
2018-07-31T13:01:01.367Z,30.3
2018-07-31T13:02:01.300Z,30
2018-07-31T13:03:03.216Z,29.9
2018-07-31T13:04:03.118Z,29.8
2018-07-31T13:05:04.046Z,29.9
2018-07-31T13:06:03.957Z,30.1
2018-07-31T13:07:03.907Z,30
2018-07-31T13:08:04.069Z,30
2018-07-31T13:09:04.972Z,30
2018-07-31T13:10:05.535Z,30.1
2018-07-31T13:11:05.768Z,30.2
2018-07-31T13:12:05.673Z,30.2
2018-07-31T13:13:06.319Z,30.2
2018-07-31T13:14:06.601Z,30.2
2018-07-31T13:15:07.520Z,30.2
2018-07-31T13:16:10.080Z,30.1
2018-07-31T13:17:11.003Z,30.1
2018-07-31T13:18:10.943Z,30
2018-07-31T13:19:10.850Z,29.9
2018-07-31T13:20:11.480Z,30
2018-07-31T13:21:11.447Z,30.1
2018-07-31T13:22:11.356Z,30.1
2018-07-31T13:23:11.274Z,30
2018-07-31T13:24:11.196Z,30.1
2018-07-31T13:25:12.143Z,30.1
2018-07-31T13:26:12.038Z,30.1
2018-07-31T13:27:12.005Z,30.1
2018-07-31T13:28:11.930Z,30.1
2018-07-31T13:29:12.288Z,30.1
2018-07-31T13:30:20.001Z,30
2018-07-31T13:31:19.909Z,30.1
2018-07-31T13:32:19.821Z,30.1
2018-07-31T13:33:22.695Z,30.2
2018-07-31T13:34:22.848Z,30.2
2018-07-31T13:35:22.760Z,30.2
2018-07-31T13:36:22.869Z,30.1
2018-07-31T13:37:23.114Z,30
2018-07-31T13:38:23.051Z,29.9